x

Tanner Bank - 121nm West Of San Diego, Ca (46047) Weather Station

9:50am - Wed 6th May 2015 All times are PDT. -7 hours from GMT.

  • Wind
    22mph, 27mph gusts
  • Sea Temp 61°f
  • Air Temp 57°f
  • Sea Pressure 1014.1mb
  • Tanner Bank - 121nm West Of San Diego, Ca
  • Tanner Bank - 121nm West Of San Diego, Ca

More Historic Weather Station data

Upgrade to MSW Pro to gain access to the past 30 days of data for over 8000 Wavebouys and Weather Stations around the globe.

Join Pro

Comparision Forecast

View Surf forecast
   
Wed 05/06 9:50am  -   -   -  22 27 mph 1014.1mb 61f 57f
8:50am 9ft 14s 7s 22 27 mph 1014.1mb 61f 57f
7:50am 9ft 15s 7s 20 25 mph 1014.2mb 61f 57f
6:50am 8ft 14s 6s 20 27 mph 1013.9mb 61f 57f
5:50am 8ft 16s 6s 22 27 mph 1013.6mb 61f 57f
4:50am 8ft 15s 6s 22 27 mph 1013.7mb 61f 57f
3:50am 8.5ft 15s 6s 22 27 mph 1014.1mb 61f 57f
2:50am  -   -   -  20 25 mph 1014.3mb 61f 57f
1:50am 9.5ft 14s 7s 20 22 mph 1014.7mb 61f 57f
12:50am 9ft 16s 7s 20 22 mph 1015.1mb 61f 58f
Tue 05/05 11:50pm 8ft 14s 7s 18 22 mph 1015.4mb 61f 58f
10:50pm 8ft 15s 7s 20 22 mph 1015.3mb 61f 58f
9:50pm 8ft 15s 7s 18 22 mph 1015.3mb 61f 58f
8:50pm 7.5ft 15s 7s 18 22 mph 1014.9mb 61f 59f
7:50pm 7ft 16s 8s 18 20 mph 1014.3mb 61f 58f
6:50pm 7.5ft 16s 8s 18 22 mph 1014.3mb 61f 59f
5:50pm 7.5ft 16s 8s 16 18 mph 1014.5mb 61f 58f
4:50pm 6.5ft 16s 7s 13 18 mph 1014.9mb 61f 59f
3:50pm 7.5ft 16s 8s 13 18 mph 1015.3mb 61f 58f
2:50pm 6.5ft 16s 7s 13 16 mph 1015.6mb 61f 58f
1:50pm 7.5ft 17s 8s 11 16 mph 1016.3mb 61f 58f
12:50pm 7ft 17s 8s 11 13 mph 1016.3mb 61f 58f
11:50am 6.5ft 16s 7s 9 16 mph 1016.7mb 61f 58f
10:50am 5.5ft 17s 7s 13 16 mph 1016.7mb 61f 58f
9:50am 7ft 17s 8s 13 18 mph 1016.3mb 61f 58f
8:50am 6.5ft 17s 8s 11 18 mph 1016.3mb 61f 58f
7:50am 7ft 16s 8s 13 18 mph 1016.2mb 61f 58f
6:50am 7ft 17s 8s 13 18 mph 1015.8mb 61f 58f
5:50am 7ft 17s 8s 11 13 mph 1015.6mb 61f 59f
4:50am 7.5ft 17s 9s 13 16 mph 1015.6mb 61f 59f
3:50am 7ft 17s 8s 9 16 mph 1015.7mb 61f 59f
2:50am 7.5ft 17s 8s 11 13 mph 1015.8mb 61f 59f
1:50am 7ft 17s 7s 11 16 mph 1016mb 61f 59f
12:50am 7.5ft 17s 8s 9 16 mph 1016.5mb 61f 59f
Mon 05/04 11:50pm 7ft 17s 7s 13 18 mph 1016.4mb 61f 59f
10:50pm 7ft 17s 7s 16 20 mph 1016.3mb 61f 60f
9:50pm 7.5ft 19s 8s 16 20 mph 1016mb 61f 60f
8:50pm 7ft 17s 8s 18 20 mph 1015.3mb 61f 60f
7:50pm 7ft 19s 8s 18 20 mph 1014.8mb 61f 60f
6:50pm 8ft 17s 9s 18 20 mph 1014.5mb 62f 60f
5:50pm 7ft 19s 9s 16 20 mph 1014.8mb 62f 60f
4:50pm 7.5ft 19s 10s 13 16 mph 1015.2mb 62f 60f
3:50pm 7ft 19s 9s 11 13 mph 1015.6mb 62f 60f
2:50pm 7ft 19s 9s 11 13 mph 1015.9mb 62f 60f
1:50pm 7ft 19s 8s 11 13 mph 1016.4mb 61f 60f
12:50pm 7ft 19s 8s 13
mph
1016.3mb 61f 60f
11:50am 6ft 17s 8s 11 13 mph 1016.4mb 61f 60f
10:50am 7.5ft 19s 9s 11 16 mph 1016.2mb 61f 60f
9:50am 7.5ft 19s 9s 11 16 mph 1015.5mb 61f 60f
8:50am 8ft 19s 9s 11 16 mph 1015.2mb 61f 60f
7:50am 8ft 17s 9s 9 11 mph 1014.9mb 61f 60f
6:50am 8.5ft 19s 9s 13 18 mph 1014.3mb 61f 60f
5:50am 8.5ft 19s 10s 13 16 mph 1013.8mb 61f 60f
4:50am 8ft 19s 9s 13 16 mph 1013.7mb 61f 60f
3:50am 7ft 21s 8s 16 18 mph 1013.7mb 61f 60f
2:50am 7ft 21s 8s 16 18 mph 1013.8mb 61f 60f
1:50am 7.5ft 19s 9s 13 18 mph 1013.9mb 61f 60f
12:50am 7.5ft 21s 9s 16 20 mph 1013.9mb 61f 60f
Sun 05/03 11:50pm 7ft 21s 9s 16 18 mph 1013.8mb 61f 61f
10:50pm 7.5ft 16s 9s 13 18 mph 1013.7mb 61f 60f
9:50pm 8ft 16s 10s 13 16 mph 1013.2mb 61f 60f
8:50pm 8ft 16s 10s 13 16 mph 1012.6mb 61f 60f
7:50pm 7.5ft 16s 9s 13 18 mph 1012.1mb 61f 60f
6:50pm 7ft 19s  -  16 20 mph 1011.9mb 61f 61f
5:50pm 7ft 21s 10s 11 13 mph 1012.5mb 61f 61f
4:50pm 6.5ft 16s 9s 11 13 mph 1012.9mb 61f 61f
3:50pm 7ft 21s 10s 11 13 mph 1013.4mb 61f 61f
2:50pm 6.5ft 16s 9s 9 11 mph 1014mb 61f 61f
1:50pm 7ft 21s 9s 9 11 mph 1014.5mb 61f 61f
12:50pm 7.5ft 21s 9s 9 13 mph 1015mb 61f 61f
11:50am 7ft 21s 8s 11 13 mph 1015.1mb 60f 60f
10:50am 6.5ft 21s 8s 11 16 mph 1014.9mb 60f 60f
9:50am 7ft 17s 8s 11 13 mph 1014.5mb 60f 60f
8:50am 7ft 24s 9s 11 13 mph 1014.1mb 60f 60f
7:50am 7ft 21s 8s 11 16 mph 1013.6mb 60f 59f
6:50am 6ft 24s 8s 13 18 mph 1012.8mb 60f 59f
5:50am 5.5ft 10s 8s 11 13 mph 1012.4mb 60f 59f
4:50am 5.5ft 10s 8s 11 16 mph 1012.3mb 60f 59f
3:50am 6ft 11s 7s 13 16 mph 1012.2mb 60f 59f
2:50am 6ft 10s 8s 9 13 mph 1012.5mb 60f 60f
1:50am 6.5ft 24s 8s 9 11 mph 1012.8mb 60f 60f
12:50am 6ft 10s 7s 9 11 mph 1013.1mb 60f 60f
Sat 05/02 11:50pm 7ft 10s 7s 11 13 mph 1012.9mb 60f 60f
10:50pm 6.5ft 10s 7s 13 16 mph 1012.5mb 60f 60f
9:50pm 6ft 10s 7s 16 18 mph 1012.2mb 60f 60f
8:50pm 6ft 10s 6s 16 18 mph 1011.6mb 61f 60f
7:50pm  -   -   -  18 20 mph 1011.3mb 61f 60f
6:50pm 6ft 10s 6s 18 20 mph 1011.2mb 61f 60f
5:50pm 6ft 10s 6s 18 20 mph 1011.5mb 61f 60f